Terminal Aerodrome Forecast
Issued by NWS Pueblo, CO

Home | Current Version | Previous Version | Text Only | Print | Product List | Glossary On
Versions: 1 2 3 4 5 6 7 8 9 10 11 12 13 14 15 16 17 18 19 20 21 22 23 24 25 26 27
000
FTUS45 KPUB 292328
TAFALS
TAF
KALS 292328Z 3000/3024 29010KT P6SM VCTS SCT080CB BKN120
     FM300200 09008KT P6SM VCTS SCT050CB BKN100
     FM300400 10006KT P6SM SCT050 BKN100
     FM300800 VRB05KT P6SM FEW060 BKN150
     FM301700 09007KT P6SM FEW060 SCT150
     FM302000 11011KT P6SM VCTS SCT050CB BKN120=

USA.gov is the U.S. government's official web portal to all federal, state and local government web resources and services.